createdAt,value
2022-10-13T00:00:17.334Z,1.76
2022-10-13T00:03:27.038Z,1.74
2022-10-13T00:06:16.781Z,1.77
2022-10-13T00:09:03.930Z,1.79
2022-10-13T00:11:50.176Z,1.79
2022-10-13T00:14:37.048Z,1.81
2022-10-13T00:17:24.393Z,1.78
2022-10-13T00:20:12.157Z,1.79
2022-10-13T00:22:58.857Z,1.77
2022-10-13T00:25:50.262Z,1.78
2022-10-13T00:28:37.845Z,1.76
2022-10-13T00:31:27.918Z,1.75
2022-10-13T00:34:14.760Z,1.68
2022-10-13T00:37:01.655Z,1.60
2022-10-13T00:39:48.392Z,1.53
2022-10-13T00:42:35.277Z,1.56
2022-10-13T00:45:29.635Z,1.59
2022-10-13T00:48:24.867Z,1.63
2022-10-13T00:51:14.940Z,1.67
2022-10-13T00:54:05.312Z,1.69
2022-10-13T00:56:53.339Z,1.71
2022-10-13T00:59:41.207Z,1.68
2022-10-13T01:02:33.872Z,1.62
2022-10-13T01:05:24.107Z,1.62
2022-10-13T01:08:15.110Z,1.60
2022-10-13T01:11:28.280Z,1.60
2022-10-13T01:14:22.459Z,1.60
2022-10-13T01:17:15.614Z,1.60
2022-10-13T01:20:22.096Z,1.58
2022-10-13T01:23:30.905Z,1.50
2022-10-13T01:26:32.096Z,1.40
2022-10-13T01:30:02.916Z,1.38
2022-10-13T01:32:52.878Z,1.40
2022-10-13T01:35:53.158Z,1.43
2022-10-13T01:39:07.744Z,1.43
2022-10-13T01:42:05.694Z,1.40
2022-10-13T01:44:59.876Z,1.33
2022-10-13T01:47:49.520Z,1.30
2022-10-13T01:50:38.157Z,1.31
2022-10-13T01:53:25.784Z,1.31
2022-10-13T01:56:13.215Z,1.27
2022-10-13T01:59:04.831Z,1.26
2022-10-13T02:02:13.238Z,1.25
2022-10-13T02:05:19.489Z,1.21
2022-10-13T02:08:15.530Z,1.22
2022-10-13T02:11:17.608Z,1.18
2022-10-13T02:14:12.861Z,1.12
2022-10-13T02:17:03.822Z,1.10
2022-10-13T02:19:51.142Z,1.17
2022-10-13T02:22:43.678Z,1.16
2022-10-13T02:25:31.308Z,1.13
2022-10-13T02:28:19.472Z,1.07
2022-10-13T02:31:09.232Z,1.05
2022-10-13T02:33:56.276Z,1.06
2022-10-13T02:36:43.120Z,1.02
2022-10-13T02:39:29.995Z,1.02
2022-10-13T02:42:16.847Z,1.02
2022-10-13T02:45:03.868Z,1.04
2022-10-13T02:47:52.494Z,1.06
2022-10-13T02:50:39.413Z,1.06
2022-10-13T02:53:26.575Z,1.00
2022-10-13T02:56:16.075Z,1.00
2022-10-13T02:59:03.415Z,0.99
2022-10-13T03:01:50.237Z,0.97
2022-10-13T03:04:39.159Z,0.98
2022-10-13T03:07:25.777Z,1.00
2022-10-13T03:10:12.754Z,0.96
2022-10-13T03:12:59.814Z,0.86
2022-10-13T03:15:47.767Z,0.82
2022-10-13T03:18:35.084Z,0.75
2022-10-13T03:21:22.080Z,0.70
2022-10-13T03:24:09.169Z,0.69
2022-10-13T03:26:56.109Z,0.75
2022-10-13T03:29:43.966Z,0.80
2022-10-13T03:32:31.752Z,0.82
2022-10-13T03:35:18.808Z,0.82
2022-10-13T03:38:05.341Z,0.80
2022-10-13T03:40:53.183Z,0.77
2022-10-13T03:43:40.710Z,0.75
2022-10-13T03:46:29.759Z,0.72
2022-10-13T03:49:18.848Z,0.70
2022-10-13T03:52:06.296Z,0.75
2022-10-13T03:54:53.037Z,0.77
2022-10-13T03:57:39.857Z,0.74
2022-10-13T04:00:26.849Z,0.74
2022-10-13T04:03:13.720Z,0.75
2022-10-13T04:06:05.925Z,0.74
2022-10-13T04:08:53.199Z,0.78
2022-10-13T04:11:39.974Z,0.83
2022-10-13T04:14:27.194Z,0.81
2022-10-13T04:17:19.564Z,0.78
2022-10-13T04:20:07.079Z,0.80
2022-10-13T04:22:53.523Z,0.83
2022-10-13T04:25:40.342Z,0.87
2022-10-13T04:28:27.371Z,0.88
2022-10-13T04:31:14.305Z,0.87
2022-10-13T04:34:01.181Z,0.89
2022-10-13T04:36:51.934Z,0.94
2022-10-13T04:39:38.551Z,0.94
2022-10-13T04:42:25.166Z,0.89
2022-10-13T04:45:11.943Z,0.83
2022-10-13T04:48:01.071Z,0.81
2022-10-13T04:50:47.544Z,0.86
2022-10-13T04:53:34.160Z,0.84
2022-10-13T04:56:21.676Z,0.88
2022-10-13T04:59:08.848Z,0.92
2022-10-13T05:01:55.616Z,0.83
2022-10-13T05:04:42.809Z,0.80
2022-10-13T05:07:31.223Z,0.80
2022-10-13T05:10:18.326Z,0.79
2022-10-13T05:13:05.171Z,0.82
2022-10-13T05:15:52.417Z,0.78
2022-10-13T05:18:42.786Z,0.74
2022-10-13T05:21:30.729Z,0.79
2022-10-13T05:24:18.066Z,0.87
2022-10-13T05:27:11.153Z,0.98
2022-10-13T05:29:58.612Z,1.02
2022-10-13T05:32:45.323Z,1.03
2022-10-13T05:35:32.263Z,1.03
2022-10-13T05:38:23.753Z,1.07
2022-10-13T05:41:14.585Z,1.08
2022-10-13T05:44:04.080Z,1.07
2022-10-13T05:46:51.006Z,1.06
2022-10-13T05:49:39.950Z,1.11
2022-10-13T05:52:28.430Z,1.08
2022-10-13T05:55:19.040Z,1.11
2022-10-13T05:58:06.375Z,1.19
2022-10-13T06:00:55.260Z,1.27
2022-10-13T06:03:43.355Z,1.32
2022-10-13T06:06:31.567Z,1.42
2022-10-13T06:09:19.026Z,1.47
2022-10-13T06:12:07.847Z,1.50
2022-10-13T06:14:55.397Z,1.55
2022-10-13T06:17:42.408Z,1.58
2022-10-13T06:20:29.057Z,1.67
2022-10-13T06:23:15.955Z,1.79
2022-10-13T06:26:02.928Z,1.92
2022-10-13T06:28:51.729Z,2.01
2022-10-13T06:31:42.214Z,2.13
2022-10-13T06:34:30.221Z,2.27
2022-10-13T06:37:17.339Z,2.37
2022-10-13T06:40:04.584Z,2.46
2022-10-13T06:42:53.526Z,2.58
2022-10-13T06:45:42.457Z,2.76
2022-10-13T06:48:29.608Z,2.92
2022-10-13T06:51:16.935Z,3.10
2022-10-13T06:54:04.213Z,3.28
2022-10-13T06:56:57.199Z,3.46
2022-10-13T06:59:49.310Z,3.64
2022-10-13T07:02:44.154Z,3.84
2022-10-13T07:05:37.830Z,4.05
2022-10-13T07:08:25.839Z,4.26
2022-10-13T07:11:18.682Z,4.50
2022-10-13T07:14:09.736Z,4.74
2022-10-13T07:16:56.771Z,4.95
2022-10-13T07:19:51.399Z,5.45
2022-10-13T07:22:39.032Z,5.77
2022-10-13T07:25:25.908Z,5.96
2022-10-13T07:28:18.249Z,6.19
2022-10-13T07:31:13.742Z,6.50
2022-10-13T07:34:14.247Z,6.96
2022-10-13T07:37:06.261Z,7.75
2022-10-13T07:40:00.490Z,9.14
2022-10-13T07:42:56.498Z,11.40
2022-10-13T07:45:48.205Z,13.23
2022-10-13T07:48:43.132Z,14.56
2022-10-13T07:51:29.940Z,15.65
2022-10-13T07:54:23.873Z,16.57
2022-10-13T07:57:15.349Z,17.34
2022-10-13T08:00:02.234Z,18.16
2022-10-13T08:03:04.286Z,18.55
2022-10-13T08:07:20.837Z,19.03
2022-10-13T08:10:14.679Z,19.32
2022-10-13T08:13:06.304Z,19.76
2022-10-13T08:16:01.520Z,20.09
2022-10-13T08:18:54.024Z,20.32
2022-10-13T08:21:58.899Z,20.53
2022-10-13T08:24:57.820Z,20.81
2022-10-13T08:27:52.459Z,20.75
2022-10-13T08:30:46.119Z,20.77
2022-10-13T08:33:34.091Z,20.73
2022-10-13T08:36:27.935Z,20.70
2022-10-13T08:39:24.704Z,20.90
2022-10-13T08:42:16.038Z,20.87
2022-10-13T08:45:36.415Z,20.85
2022-10-13T08:48:32.966Z,20.89
2022-10-13T08:51:24.869Z,21.10
2022-10-13T08:54:19.562Z,21.45
2022-10-13T08:57:11.596Z,21.71
2022-10-13T09:00:03.660Z,21.82
2022-10-13T09:03:25.885Z,21.97
2022-10-13T09:06:29.569Z,22.03
2022-10-13T09:11:05.780Z,22.45
2022-10-13T09:14:38.738Z,22.48
2022-10-13T09:17:32.096Z,22.42
2022-10-13T09:20:27.885Z,22.28
2022-10-13T09:23:22.763Z,22.28
2022-10-13T09:26:25.426Z,22.38
2022-10-13T09:32:35.570Z,22.52
2022-10-13T09:35:27.927Z,22.73
2022-10-13T09:38:22.634Z,22.93
2022-10-13T09:41:22.128Z,23.11
2022-10-13T09:44:18.112Z,23.38
2022-10-13T09:47:20.317Z,23.20
2022-10-13T09:50:19.410Z,23.17
2022-10-13T09:53:15.207Z,23.44
2022-10-13T09:56:20.601Z,23.31
2022-10-13T09:59:13.845Z,23.40
2022-10-13T10:02:47.715Z,23.66
2022-10-13T10:05:56.310Z,23.71
2022-10-13T10:09:25.961Z,23.60
2022-10-13T10:13:40.936Z,23.85
2022-10-13T10:16:45.080Z,23.96
2022-10-13T10:19:55.415Z,24.12
2022-10-13T10:23:12.149Z,24.14
2022-10-13T10:26:20.755Z,23.51
2022-10-13T10:31:08.517Z,23.63
2022-10-13T10:34:31.015Z,23.79
2022-10-13T10:37:35.527Z,23.76
2022-10-13T10:41:07.641Z,23.85
2022-10-13T10:44:04.445Z,23.92
2022-10-13T10:47:02.894Z,23.95
2022-10-13T10:50:00.446Z,23.81
2022-10-13T10:52:59.959Z,23.84
2022-10-13T10:56:02.029Z,24.00
2022-10-13T11:01:47.496Z,24.33
2022-10-13T11:05:05.094Z,24.00
2022-10-13T11:08:49.478Z,23.91
2022-10-13T11:11:43.211Z,23.66
2022-10-13T11:14:38.111Z,23.67
2022-10-13T11:17:37.921Z,23.69
2022-10-13T11:20:37.937Z,24.05
2022-10-13T11:26:31.648Z,24.45
2022-10-13T11:29:44.299Z,24.43
2022-10-13T11:32:36.305Z,24.55
2022-10-13T11:35:29.784Z,24.57
2022-10-13T11:38:32.230Z,24.47
2022-10-13T11:41:41.157Z,24.26
2022-10-13T11:44:58.734Z,24.37
2022-10-13T11:48:23.601Z,24.36
2022-10-13T11:51:23.665Z,24.60
2022-10-13T11:54:19.544Z,24.77
2022-10-13T11:57:26.411Z,24.82
2022-10-13T12:00:16.116Z,24.54
2022-10-13T12:03:03.451Z,24.34
2022-10-13T12:05:51.386Z,24.01
2022-10-13T12:08:39.332Z,23.48
2022-10-13T12:11:29.281Z,23.03
2022-10-13T12:14:29.928Z,22.75
2022-10-13T12:17:38.884Z,22.49
2022-10-13T12:20:29.719Z,22.16
2022-10-13T12:23:18.136Z,22.41
2022-10-13T12:26:05.862Z,22.67
2022-10-13T12:28:55.829Z,22.94
2022-10-13T12:31:45.899Z,23.02
2022-10-13T12:34:35.263Z,22.85
2022-10-13T12:37:33.708Z,22.47
2022-10-13T12:40:21.786Z,22.13
2022-10-13T12:43:11.796Z,21.81
2022-10-13T12:45:58.670Z,21.75
2022-10-13T12:48:45.599Z,22.07
2022-10-13T12:51:34.089Z,22.14
2022-10-13T12:54:30.590Z,21.84
2022-10-13T12:57:38.699Z,21.76
2022-10-13T13:00:28.511Z,21.96
2022-10-13T13:03:25.641Z,21.89
2022-10-13T13:06:15.684Z,21.68
2022-10-13T13:09:28.634Z,21.42
2022-10-13T13:12:23.201Z,21.17
2022-10-13T13:15:27.327Z,21.02
2022-10-13T13:18:26.516Z,20.99
2022-10-13T13:21:15.980Z,20.95
2022-10-13T13:24:07.488Z,21.06
2022-10-13T13:27:26.503Z,21.13
2022-10-13T13:30:17.238Z,21.33
2022-10-13T13:33:04.135Z,21.41
2022-10-13T13:35:52.609Z,21.42
2022-10-13T13:38:39.373Z,21.33
2022-10-13T13:41:27.986Z,21.40
2022-10-13T13:44:14.857Z,21.40
2022-10-13T13:47:01.846Z,21.30
2022-10-13T13:49:51.865Z,21.34
2022-10-13T13:52:38.329Z,21.24
2022-10-13T13:55:27.203Z,21.01
2022-10-13T13:58:14.187Z,20.62
2022-10-13T14:01:01.000Z,20.57
2022-10-13T14:03:47.574Z,20.51
2022-10-13T14:06:35.179Z,20.46
2022-10-13T14:09:22.276Z,20.36
2022-10-13T14:12:09.172Z,20.23
2022-10-13T14:14:55.808Z,20.02
2022-10-13T14:17:42.832Z,19.82
2022-10-13T14:20:32.340Z,19.67
2022-10-13T14:23:21.767Z,19.63
2022-10-13T14:26:09.718Z,19.64
2022-10-13T14:28:57.454Z,19.52
2022-10-13T14:31:44.797Z,19.30
2022-10-13T14:34:33.267Z,19.12
2022-10-13T14:37:23.166Z,18.96
2022-10-13T14:40:10.796Z,18.79
2022-10-13T14:42:57.691Z,18.71
2022-10-13T14:45:44.113Z,18.65
2022-10-13T14:48:35.373Z,18.59
2022-10-13T14:51:22.159Z,18.49
2022-10-13T14:54:09.087Z,18.36
2022-10-13T14:56:55.822Z,18.21
2022-10-13T14:59:42.815Z,18.04
2022-10-13T15:02:29.991Z,17.86
2022-10-13T15:05:17.094Z,17.63
2022-10-13T15:08:03.637Z,17.41
2022-10-13T15:11:04.258Z,17.16
2022-10-13T15:13:50.846Z,16.96
2022-10-13T15:16:38.080Z,16.78
2022-10-13T15:19:24.896Z,16.58
2022-10-13T15:22:11.807Z,16.39
2022-10-13T15:24:58.791Z,16.18
2022-10-13T15:27:46.086Z,15.94
2022-10-13T15:30:33.985Z,15.76
2022-10-13T15:33:29.742Z,15.56
2022-10-13T16:58:45.456Z,11.84
2022-10-13T17:01:33.868Z,11.61
2022-10-13T17:04:22.223Z,11.42
2022-10-13T17:07:09.680Z,11.22
2022-10-13T17:09:56.406Z,11.04
2022-10-13T17:12:43.276Z,10.90
2022-10-13T17:15:30.395Z,10.82
2022-10-13T17:18:17.167Z,10.75
2022-10-13T17:21:08.439Z,10.70
2022-10-13T17:23:56.324Z,10.64
2022-10-13T17:26:46.081Z,10.59
2022-10-13T17:29:34.570Z,10.57
2022-10-13T17:32:22.110Z,10.55
2022-10-13T17:35:14.348Z,10.52
2022-10-13T17:38:01.500Z,10.50
2022-10-13T17:40:53.932Z,10.48
2022-10-13T17:43:43.036Z,10.44
2022-10-13T17:46:36.761Z,10.38
2022-10-13T17:49:25.163Z,10.35
2022-10-13T17:52:12.392Z,10.31
2022-10-13T17:54:59.106Z,10.25
2022-10-13T17:58:07.441Z,10.18
2022-10-13T18:01:12.389Z,10.14
2022-10-13T18:04:06.333Z,10.05
2022-10-13T18:06:53.358Z,9.97
2022-10-13T18:09:40.825Z,9.96
2022-10-13T18:12:27.870Z,9.90
2022-10-13T18:15:14.910Z,9.85
2022-10-13T18:18:01.530Z,9.77
2022-10-13T18:20:49.474Z,9.70
2022-10-13T18:23:37.364Z,9.64
2022-10-13T18:26:25.478Z,9.56
2022-10-13T18:29:13.463Z,9.50
2022-10-13T18:32:00.544Z,9.44
2022-10-13T18:34:47.636Z,9.37
2022-10-13T18:37:35.391Z,9.33
2022-10-13T18:40:22.842Z,9.29
2022-10-13T18:43:12.095Z,9.23
2022-10-13T18:46:00.572Z,9.15
2022-10-13T18:48:47.282Z,9.05
2022-10-13T18:51:36.413Z,8.94
2022-10-13T18:54:23.793Z,8.85
2022-10-13T18:57:11.918Z,8.79
2022-10-13T18:59:59.224Z,8.71
2022-10-13T19:02:49.207Z,8.61
2022-10-13T19:05:39.722Z,8.51
2022-10-13T19:08:27.063Z,8.41
2022-10-13T19:11:15.602Z,8.36
2022-10-13T19:14:04.304Z,8.33
2022-10-13T19:16:51.220Z,8.29
2022-10-13T19:19:46.071Z,8.23
2022-10-13T19:22:32.962Z,8.19
2022-10-13T19:25:19.899Z,8.13
2022-10-13T19:28:06.582Z,8.08
2022-10-13T19:30:53.491Z,8.00
2022-10-13T19:33:44.829Z,7.99
2022-10-13T19:36:37.878Z,7.92
2022-10-13T19:39:26.729Z,7.91
2022-10-13T19:42:13.769Z,7.93
2022-10-13T19:45:02.009Z,7.96
2022-10-13T19:47:48.906Z,7.92
2022-10-13T19:50:35.499Z,7.91
2022-10-13T19:53:22.471Z,7.93
2022-10-13T19:56:09.587Z,7.88
2022-10-13T19:58:56.427Z,7.85
2022-10-13T20:01:44.016Z,7.81
2022-10-13T20:04:33.842Z,7.78
2022-10-13T20:07:21.117Z,7.75
2022-10-13T20:10:08.440Z,7.64
2022-10-13T20:12:57.361Z,-46.62
2022-10-13T20:15:44.673Z,-128.00
2022-10-13T20:18:31.839Z,-128.00
2022-10-13T20:21:18.719Z,-128.00
2022-10-13T20:24:06.495Z,-100.90
2022-10-13T20:26:53.579Z,7.55
2022-10-13T20:29:42.338Z,7.48
2022-10-13T20:32:29.593Z,7.47
2022-10-13T20:35:16.564Z,7.48
2022-10-13T20:38:03.592Z,7.49
2022-10-13T20:40:50.123Z,7.46
2022-10-13T20:43:37.199Z,7.30
2022-10-13T20:46:24.520Z,7.22
2022-10-13T20:49:12.225Z,7.23
2022-10-13T20:51:59.734Z,7.29
2022-10-13T20:54:46.508Z,7.35
2022-10-13T20:57:33.237Z,7.38
2022-10-13T21:00:20.277Z,7.37
2022-10-13T21:03:06.865Z,7.32
2022-10-13T21:05:55.502Z,7.27
2022-10-13T21:08:45.771Z,7.19
2022-10-13T21:11:33.355Z,7.12
2022-10-13T21:14:20.274Z,7.13
2022-10-13T21:17:08.006Z,7.14
2022-10-13T21:19:55.758Z,7.15
2022-10-13T21:22:43.286Z,7.14
2022-10-13T21:25:30.650Z,7.17
2022-10-13T21:28:19.355Z,7.22
2022-10-13T21:31:09.796Z,7.29
2022-10-13T21:33:57.545Z,7.27
2022-10-13T21:36:45.525Z,7.33
2022-10-13T21:39:32.761Z,7.44
2022-10-13T21:42:19.639Z,7.52
2022-10-13T21:45:07.003Z,7.59
2022-10-13T21:47:53.839Z,7.58
2022-10-13T21:50:40.615Z,7.55
2022-10-13T21:53:29.486Z,7.57
2022-10-13T21:56:16.760Z,7.58
2022-10-13T21:59:05.070Z,7.60
2022-10-13T22:01:52.032Z,7.61
2022-10-13T22:04:38.923Z,7.67
2022-10-13T22:07:25.479Z,7.70
2022-10-13T22:10:12.250Z,7.71
2022-10-13T22:12:58.962Z,7.63
2022-10-13T22:15:46.124Z,7.58
2022-10-13T22:18:35.452Z,7.57
2022-10-13T22:21:26.829Z,7.65
2022-10-13T22:24:16.476Z,7.73
2022-10-13T22:27:03.220Z,7.72
2022-10-13T22:29:50.051Z,7.76
2022-10-13T22:32:37.658Z,7.82
2022-10-13T22:35:24.560Z,7.87
2022-10-13T22:38:11.173Z,7.93
2022-10-13T22:41:03.290Z,7.97
2022-10-13T22:43:51.285Z,8.02
2022-10-13T22:46:39.449Z,8.05
2022-10-13T22:49:26.126Z,8.07
2022-10-13T22:52:13.137Z,8.09
2022-10-13T22:55:00.001Z,8.07
2022-10-13T22:57:46.983Z,8.09
2022-10-13T23:00:37.849Z,8.11
2022-10-13T23:03:24.851Z,8.11
2022-10-13T23:06:15.775Z,8.14
2022-10-13T23:09:06.227Z,8.17
2022-10-13T23:11:56.288Z,8.17
2022-10-13T23:14:48.395Z,8.17
2022-10-13T23:17:36.321Z,8.15
2022-10-13T23:20:23.354Z,8.11
2022-10-13T23:23:10.703Z,8.12
2022-10-13T23:26:02.395Z,8.11
2022-10-13T23:28:51.595Z,8.08
2022-10-13T23:31:38.348Z,8.05
2022-10-13T23:34:25.488Z,8.09
2022-10-13T23:37:12.087Z,8.15
2022-10-13T23:39:59.005Z,8.17
2022-10-13T23:42:46.174Z,8.17
2022-10-13T23:45:33.025Z,8.22
2022-10-13T23:48:19.598Z,8.26
2022-10-13T23:51:08.971Z,8.27
2022-10-13T23:53:56.293Z,8.23
2022-10-13T23:56:43.370Z,8.27
2022-10-13T23:59:30.137Z,8.28
